createdAt,value
2019-03-18T00:02:06.433Z,2.90
2019-03-18T00:04:34.935Z,3.10
2019-03-18T00:07:05.381Z,3.00
2019-03-18T00:09:34.164Z,3.00
2019-03-18T00:12:02.728Z,3.00
2019-03-18T00:14:31.383Z,3.00
2019-03-18T00:17:00.319Z,3.00
2019-03-18T00:19:29.413Z,3.00
2019-03-18T00:22:19.757Z,3.00
2019-03-18T00:24:48.443Z,3.00
2019-03-18T00:27:20.999Z,3.00
2019-03-18T00:29:50.777Z,3.00
2019-03-18T00:32:19.542Z,3.00
2019-03-18T00:34:48.115Z,3.00
2019-03-18T00:37:16.750Z,2.90
2019-03-18T00:39:45.285Z,2.90
2019-03-18T00:42:14.008Z,2.80
2019-03-18T00:44:42.693Z,2.90
2019-03-18T00:47:11.235Z,2.90
2019-03-18T00:49:39.780Z,2.90
2019-03-18T00:52:08.632Z,3.00
2019-03-18T00:54:37.201Z,3.00
2019-03-18T00:57:05.747Z,3.00
2019-03-18T00:59:34.310Z,3.10
2019-03-18T01:02:03.315Z,3.10
2019-03-18T01:04:31.943Z,3.10
2019-03-18T01:07:00.518Z,3.10
2019-03-18T01:09:29.278Z,3.00
2019-03-18T01:11:58.184Z,2.90
2019-03-18T01:14:26.871Z,2.80
2019-03-18T01:17:03.476Z,2.90
2019-03-18T01:19:32.044Z,2.80
2019-03-18T01:22:01.140Z,2.90
2019-03-18T01:24:30.031Z,2.90
2019-03-18T01:26:58.923Z,2.90
2019-03-18T01:29:27.496Z,2.90
2019-03-18T01:31:57.714Z,2.90
2019-03-18T01:34:26.353Z,2.90
2019-03-18T01:36:54.908Z,2.90
2019-03-18T01:39:23.447Z,2.90
2019-03-18T01:41:52.095Z,2.80
2019-03-18T01:44:20.654Z,2.80
2019-03-18T01:46:49.260Z,2.70
2019-03-18T01:49:18.038Z,2.70
2019-03-18T01:51:48.147Z,2.60
2019-03-18T01:54:16.692Z,2.70
2019-03-18T01:56:45.294Z,2.70
2019-03-18T01:59:14.048Z,2.60
2019-03-18T02:01:42.687Z,2.70
2019-03-18T02:04:11.220Z,2.60
2019-03-18T02:06:39.860Z,2.60
2019-03-18T02:09:08.479Z,2.70
2019-03-18T02:11:37.058Z,2.70
2019-03-18T02:14:05.646Z,2.70
2019-03-18T02:16:34.256Z,2.70
2019-03-18T02:19:23.880Z,2.70
2019-03-18T02:21:52.426Z,2.80
2019-03-18T02:24:21.040Z,2.80
2019-03-18T02:26:49.636Z,2.80
2019-03-18T02:29:18.174Z,2.70
2019-03-18T02:31:46.818Z,2.70
2019-03-18T02:34:15.379Z,2.80
2019-03-18T02:36:44.082Z,2.80
2019-03-18T02:39:12.620Z,2.80
2019-03-18T02:41:41.183Z,2.70
2019-03-18T02:44:09.830Z,2.80
2019-03-18T02:46:38.433Z,2.90
2019-03-18T02:49:06.929Z,2.90
2019-03-18T02:51:35.506Z,3.00
2019-03-18T02:54:04.042Z,3.10
2019-03-18T02:56:32.596Z,3.00
2019-03-18T02:59:07.389Z,3.00
2019-03-18T03:01:36.032Z,3.00
2019-03-18T03:04:04.673Z,3.00
2019-03-18T03:06:33.444Z,2.90
2019-03-18T03:09:02.049Z,2.90
2019-03-18T03:11:36.448Z,2.90
2019-03-18T03:14:06.193Z,2.80
2019-03-18T03:16:34.768Z,2.70
2019-03-18T03:19:03.305Z,2.70
2019-03-18T03:21:31.921Z,2.50
2019-03-18T03:24:00.497Z,2.40
2019-03-18T03:26:29.063Z,2.30
2019-03-18T03:28:57.624Z,2.30
2019-03-18T03:31:26.204Z,2.20
2019-03-18T03:33:54.717Z,2.20
2019-03-18T03:36:23.279Z,2.00
2019-03-18T03:38:51.831Z,2.00
2019-03-18T03:41:20.424Z,1.90
2019-03-18T03:43:49.273Z,1.90
2019-03-18T03:46:17.856Z,1.90
2019-03-18T03:48:46.441Z,1.90
2019-03-18T03:51:15.061Z,1.90
2019-03-18T03:53:46.140Z,1.80
2019-03-18T03:56:14.885Z,1.80
2019-03-18T03:58:43.467Z,1.70
2019-03-18T04:01:12.003Z,1.70
2019-03-18T04:03:40.688Z,1.80
2019-03-18T04:06:09.583Z,1.80
2019-03-18T04:08:41.266Z,1.70
2019-03-18T04:11:09.850Z,1.60
2019-03-18T04:13:38.388Z,1.60
2019-03-18T04:16:06.927Z,1.60
2019-03-18T04:18:35.583Z,1.60
2019-03-18T04:21:05.861Z,1.50
2019-03-18T04:23:34.515Z,1.50
2019-03-18T04:26:03.230Z,1.50
2019-03-18T04:28:31.907Z,1.50
2019-03-18T04:31:00.449Z,1.50
2019-03-18T04:33:29.056Z,1.50
2019-03-18T04:35:57.666Z,1.50
2019-03-18T04:38:26.210Z,1.50
2019-03-18T04:40:54.950Z,1.60
2019-03-18T04:43:23.501Z,1.60
2019-03-18T04:45:52.136Z,1.60
2019-03-18T04:48:20.689Z,1.60
2019-03-18T04:50:49.294Z,1.50
2019-03-18T04:53:17.839Z,1.50
2019-03-18T04:55:46.402Z,1.50
2019-03-18T04:58:14.949Z,1.50
2019-03-18T05:00:43.500Z,1.50
2019-03-18T05:03:12.126Z,1.50
2019-03-18T05:05:40.806Z,1.50
2019-03-18T05:08:09.674Z,1.50
2019-03-18T05:10:38.209Z,1.60
2019-03-18T05:13:06.762Z,1.70
2019-03-18T05:15:35.327Z,1.80
2019-03-18T05:18:03.943Z,1.80
2019-03-18T05:35:23.722Z,2.00
2019-03-18T05:41:10.837Z,2.10
2019-03-18T05:52:39.920Z,2.20
2019-03-18T05:55:23.648Z,2.20
2019-03-18T05:57:54.321Z,2.20
2019-03-18T06:00:35.554Z,2.30
2019-03-18T06:03:04.301Z,2.30
2019-03-18T06:08:24.647Z,2.40
2019-03-18T06:10:53.295Z,2.40
2019-03-18T06:13:21.854Z,2.40
2019-03-18T06:15:50.403Z,2.50
2019-03-18T06:18:18.970Z,2.50
2019-03-18T06:20:47.927Z,2.50
2019-03-18T06:23:16.460Z,2.60
2019-03-18T06:25:45.026Z,2.70
2019-03-18T06:28:13.877Z,2.70
2019-03-18T06:30:42.445Z,2.80
2019-03-18T06:33:11.448Z,2.80
2019-03-18T06:35:40.057Z,2.80
2019-03-18T06:38:08.759Z,2.80
2019-03-18T06:40:40.368Z,2.90
2019-03-18T06:43:09.470Z,2.90
2019-03-18T06:45:38.090Z,2.90
2019-03-18T06:51:01.129Z,2.90
2019-03-18T06:53:29.682Z,3.00
2019-03-18T06:55:58.397Z,3.10
2019-03-18T06:58:26.958Z,3.20
2019-03-18T07:00:55.752Z,3.30
2019-03-18T07:03:24.532Z,3.30
2019-03-18T07:08:56.047Z,3.60
2019-03-18T07:11:24.908Z,3.70
2019-03-18T07:13:53.439Z,3.80
2019-03-18T07:16:22.026Z,4.00
2019-03-18T07:18:52.236Z,4.10
2019-03-18T07:21:20.778Z,4.10
2019-03-18T07:23:49.389Z,4.30
2019-03-18T07:26:17.975Z,4.40
2019-03-18T07:28:46.569Z,4.40
2019-03-18T07:31:15.141Z,4.40
2019-03-18T07:33:43.720Z,4.40
2019-03-18T07:36:12.371Z,4.40
2019-03-18T07:38:40.935Z,4.40
2019-03-18T07:41:09.531Z,4.50
2019-03-18T07:43:38.090Z,4.60
2019-03-18T07:46:06.665Z,4.60
2019-03-18T07:48:35.493Z,4.70
2019-03-18T07:51:04.127Z,4.70
2019-03-18T07:53:32.667Z,4.80
2019-03-18T07:56:01.242Z,4.90
2019-03-18T07:58:29.797Z,4.90
2019-03-18T08:00:58.481Z,4.90
2019-03-18T08:03:28.154Z,4.90
2019-03-18T08:05:59.853Z,4.90
2019-03-18T08:08:28.589Z,4.90
2019-03-18T08:10:57.548Z,4.90
2019-03-18T08:13:26.434Z,4.90
2019-03-18T08:15:55.145Z,5.00
2019-03-18T08:18:23.691Z,4.90
2019-03-18T08:20:52.348Z,5.00
2019-03-18T08:23:20.909Z,5.00
2019-03-18T08:25:55.409Z,5.00
2019-03-18T08:31:28.352Z,5.20
2019-03-18T08:33:59.956Z,5.30
2019-03-18T08:45:08.389Z,5.00
2019-03-18T08:47:48.524Z,5.00
2019-03-18T08:50:17.381Z,4.90
2019-03-18T08:52:50.060Z,4.90
2019-03-18T08:55:25.244Z,4.90
2019-03-18T09:00:42.466Z,5.00
2019-03-18T09:03:15.001Z,5.10
2019-03-18T09:05:46.728Z,5.20
2019-03-18T09:11:14.825Z,5.20
2019-03-18T09:13:51.431Z,5.20
2019-03-18T09:16:20.191Z,5.40
2019-03-18T09:21:54.977Z,5.70
2019-03-18T09:24:35.547Z,5.90
2019-03-18T09:27:04.428Z,6.10
2019-03-18T09:29:34.236Z,6.30
2019-03-18T09:32:05.331Z,6.40
2019-03-18T09:37:54.149Z,6.70
2019-03-18T09:43:29.161Z,7.40
2019-03-18T09:46:04.534Z,7.10
2019-03-18T10:02:58.491Z,8.30
2019-03-18T10:05:43.942Z,7.90
2019-03-18T10:08:25.111Z,7.10
2019-03-18T10:10:59.189Z,6.30
2019-03-18T10:13:40.701Z,6.90
2019-03-18T10:24:56.136Z,10.60
2019-03-18T10:27:28.104Z,10.50
2019-03-18T10:29:59.026Z,10.10
2019-03-18T10:32:29.376Z,10.10
2019-03-18T10:35:01.109Z,10.30
2019-03-18T10:37:40.147Z,10.20
2019-03-18T10:51:56.310Z,8.80
2019-03-18T10:54:30.749Z,8.60
2019-03-18T11:17:56.447Z,9.80
2019-03-18T11:20:25.512Z,9.00
2019-03-18T11:22:54.142Z,8.30
2019-03-18T11:25:23.644Z,7.50
2019-03-18T11:28:02.847Z,6.90
2019-03-18T11:30:34.355Z,6.50
2019-03-18T11:33:09.601Z,6.30
2019-03-18T12:19:18.929Z,8.70
2019-03-18T12:21:52.798Z,8.30
2019-03-18T12:24:23.823Z,8.00
2019-03-18T12:30:03.802Z,7.90
2019-03-18T12:38:21.675Z,7.90
2019-03-18T12:40:56.854Z,7.90
2019-03-18T12:43:28.246Z,8.00
2019-03-18T12:46:20.961Z,8.20
2019-03-18T12:49:04.421Z,8.20
2019-03-18T12:51:44.482Z,8.40
2019-03-18T13:03:09.130Z,8.40
2019-03-18T13:05:42.442Z,8.10
2019-03-18T13:08:11.357Z,8.00
2019-03-18T13:10:40.008Z,7.90
2019-03-18T13:13:09.715Z,7.90
2019-03-18T13:15:51.047Z,8.10
2019-03-18T13:18:38.434Z,8.30
2019-03-18T13:21:17.088Z,8.50
2019-03-18T13:23:51.533Z,8.90
2019-03-18T13:32:28.619Z,9.40
2019-03-18T13:35:35.320Z,9.80
2019-03-18T13:41:05.725Z,10.10
2019-03-18T13:43:37.286Z,10.30
2019-03-18T13:46:05.876Z,10.00
2019-03-18T13:54:16.677Z,9.80
2019-03-18T13:56:46.096Z,9.70
2019-03-18T13:59:14.771Z,9.30
2019-03-18T14:01:45.604Z,9.10
2019-03-18T14:04:14.315Z,8.90
2019-03-18T14:06:47.917Z,8.90
2019-03-18T14:09:17.090Z,8.90
2019-03-18T14:11:46.676Z,9.10
2019-03-18T14:14:15.356Z,9.40
2019-03-18T14:16:44.039Z,9.40
2019-03-18T14:19:13.335Z,9.40
2019-03-18T14:21:44.832Z,9.30
2019-03-18T14:24:17.183Z,9.20
2019-03-18T14:26:45.787Z,9.20
2019-03-18T14:29:14.643Z,9.00
2019-03-18T14:31:43.774Z,8.90
2019-03-18T14:34:12.846Z,9.00
2019-03-18T14:36:44.203Z,9.20
2019-03-18T14:45:16.117Z,9.50
2019-03-18T14:53:45.379Z,9.80
2019-03-18T14:56:14.094Z,9.80
2019-03-18T14:58:42.708Z,9.80
2019-03-18T15:01:15.991Z,9.90
2019-03-18T15:06:39.275Z,9.50
2019-03-18T15:09:29.249Z,9.20
2019-03-18T15:11:57.812Z,8.90
2019-03-18T15:14:26.368Z,8.70
2019-03-18T15:16:55.098Z,8.60
2019-03-18T15:19:23.661Z,8.60
2019-03-18T15:21:58.504Z,8.70
2019-03-18T15:24:22.577Z,8.70
2019-03-18T15:26:52.589Z,8.60
2019-03-18T15:29:22.005Z,8.70
2019-03-18T15:31:52.217Z,8.60
2019-03-18T15:34:21.002Z,8.60
2019-03-18T15:36:49.897Z,8.50
2019-03-18T15:39:25.560Z,8.50
2019-03-18T15:41:52.703Z,8.20
2019-03-18T15:44:21.257Z,8.00
2019-03-18T15:46:50.057Z,7.80
2019-03-18T15:49:18.595Z,7.70
2019-03-18T15:51:47.139Z,7.60
2019-03-18T15:54:23.766Z,7.40
2019-03-18T15:56:52.492Z,7.40
2019-03-18T15:59:21.112Z,7.50
2019-03-18T16:01:51.187Z,7.50
2019-03-18T16:04:19.959Z,7.40
2019-03-18T16:06:48.736Z,7.30
2019-03-18T16:09:17.654Z,7.30
2019-03-18T16:11:46.573Z,7.30
2019-03-18T16:14:15.179Z,7.20
2019-03-18T16:16:44.015Z,7.20
2019-03-18T16:19:12.672Z,7.00
2019-03-18T16:21:41.593Z,6.90
2019-03-18T16:24:10.139Z,6.80
2019-03-18T16:26:38.727Z,6.70
2019-03-18T16:29:07.262Z,6.70
2019-03-18T16:31:35.867Z,6.60
2019-03-18T16:34:04.810Z,6.60
2019-03-18T16:36:33.353Z,6.60
2019-03-18T16:39:02.355Z,6.70
2019-03-18T16:41:36.826Z,6.70
2019-03-18T16:44:05.420Z,6.60
2019-03-18T16:46:34.645Z,6.60
2019-03-18T16:49:03.243Z,6.60
2019-03-18T16:51:31.786Z,6.60
2019-03-18T16:54:00.370Z,6.70
2019-03-18T16:56:28.950Z,6.70
2019-03-18T16:58:57.492Z,6.60
2019-03-18T17:01:26.239Z,6.60
2019-03-18T17:03:54.829Z,6.60
2019-03-18T17:06:38.016Z,6.50
2019-03-18T17:09:27.831Z,6.40
2019-03-18T17:11:56.649Z,6.30
2019-03-18T17:14:25.207Z,6.20
2019-03-18T17:16:53.885Z,6.10
2019-03-18T17:19:22.438Z,6.00
2019-03-18T17:21:51.192Z,6.00
2019-03-18T17:24:19.756Z,5.90
2019-03-18T17:26:48.355Z,5.80
2019-03-18T17:29:17.459Z,5.70
2019-03-18T17:31:46.230Z,5.60
2019-03-18T17:34:15.347Z,5.60
2019-03-18T17:36:44.445Z,5.70
2019-03-18T17:39:16.130Z,5.70
2019-03-18T17:41:44.692Z,5.80
2019-03-18T17:44:15.004Z,5.80
2019-03-18T17:46:43.545Z,5.90
2019-03-18T17:49:12.372Z,5.80
2019-03-18T17:51:41.255Z,5.80
2019-03-18T17:54:10.304Z,5.80
2019-03-18T17:56:38.852Z,5.70
2019-03-18T17:59:26.965Z,5.70
2019-03-18T18:01:54.706Z,5.70
2019-03-18T18:04:23.341Z,5.70
2019-03-18T18:06:53.427Z,5.60
2019-03-18T18:09:22.328Z,5.50
2019-03-18T18:11:52.760Z,5.60
2019-03-18T18:14:21.562Z,5.50
2019-03-18T18:16:50.215Z,5.50
2019-03-18T18:19:19.115Z,5.40
2019-03-18T18:21:47.915Z,5.40
2019-03-18T18:24:16.547Z,5.40
2019-03-18T18:26:45.228Z,5.30
2019-03-18T18:29:14.681Z,5.30
2019-03-18T18:31:44.976Z,5.20
2019-03-18T18:34:13.530Z,5.20
2019-03-18T18:36:42.067Z,5.20
2019-03-18T18:39:10.651Z,5.20
2019-03-18T18:41:39.179Z,5.10
2019-03-18T18:44:08.224Z,5.10
2019-03-18T18:46:37.048Z,5.10
2019-03-18T18:49:05.656Z,5.00
2019-03-18T18:51:34.315Z,5.10
2019-03-18T18:54:03.216Z,5.10
2019-03-18T18:56:32.089Z,5.10
2019-03-18T18:59:00.611Z,5.10
2019-03-18T19:01:29.208Z,5.00
2019-03-18T19:03:57.983Z,4.90
2019-03-18T19:06:26.727Z,4.90
2019-03-18T19:08:55.306Z,4.90
2019-03-18T19:11:23.817Z,4.90
2019-03-18T19:13:52.361Z,4.80
2019-03-18T19:16:20.923Z,4.80
2019-03-18T19:18:49.813Z,4.80
2019-03-18T19:21:18.525Z,4.80
2019-03-18T19:23:47.350Z,4.70
2019-03-18T19:26:16.125Z,4.60
2019-03-18T19:28:44.914Z,4.50
2019-03-18T19:31:13.684Z,4.50
2019-03-18T19:33:42.507Z,4.40
2019-03-18T19:36:11.051Z,4.30
2019-03-18T19:38:39.597Z,4.20
2019-03-18T19:41:08.226Z,4.30
2019-03-18T19:43:36.713Z,4.30
2019-03-18T19:46:05.249Z,4.30
2019-03-18T19:48:34.491Z,4.40
2019-03-18T19:51:03.213Z,4.30
2019-03-18T19:53:31.796Z,4.40
2019-03-18T19:56:00.400Z,4.30
2019-03-18T19:58:28.891Z,4.30
2019-03-18T20:00:57.528Z,4.30
2019-03-18T20:03:26.059Z,4.30
2019-03-18T20:05:54.898Z,4.10
2019-03-18T20:08:23.612Z,4.10
2019-03-18T20:10:53.751Z,4.10
2019-03-18T20:13:22.584Z,4.00
2019-03-18T20:15:51.414Z,4.00
2019-03-18T20:18:21.541Z,3.90
2019-03-18T20:20:50.359Z,3.90
2019-03-18T20:23:19.141Z,3.80
2019-03-18T20:25:47.967Z,3.70
2019-03-18T20:28:18.316Z,3.60
2019-03-18T20:30:47.154Z,3.60
2019-03-18T20:33:16.024Z,3.60
2019-03-18T20:35:44.848Z,3.50
2019-03-18T20:38:13.607Z,3.50
2019-03-18T20:40:42.691Z,3.50
2019-03-18T20:43:11.259Z,3.50
2019-03-18T20:45:59.144Z,3.50
2019-03-18T20:48:27.683Z,3.50
2019-03-18T20:50:56.735Z,3.50
2019-03-18T20:53:25.811Z,3.50
2019-03-18T20:55:54.341Z,3.40
2019-03-18T20:58:22.900Z,3.30
2019-03-18T21:00:52.998Z,3.30
2019-03-18T21:03:22.023Z,3.20
2019-03-18T21:05:50.555Z,3.20
2019-03-18T21:08:19.138Z,3.10
2019-03-18T21:10:48.452Z,3.10
2019-03-18T21:13:17.222Z,3.10
2019-03-18T21:15:45.774Z,3.00
2019-03-18T21:18:14.256Z,3.00
2019-03-18T21:20:42.819Z,2.90
2019-03-18T21:23:11.359Z,2.90
2019-03-18T21:25:39.960Z,2.90
2019-03-18T21:28:08.519Z,2.90
2019-03-18T21:30:37.061Z,2.90
2019-03-18T21:33:05.829Z,2.90
2019-03-18T21:35:34.395Z,2.90
2019-03-18T21:38:02.947Z,2.80
2019-03-18T21:40:31.571Z,2.80
2019-03-18T21:43:00.369Z,2.70
2019-03-18T21:45:28.942Z,2.70
2019-03-18T21:47:57.485Z,2.60
2019-03-18T21:50:26.164Z,2.50
2019-03-18T21:52:55.009Z,2.50
2019-03-18T21:55:23.547Z,2.50
2019-03-18T21:57:52.143Z,2.40
2019-03-18T22:00:44.502Z,2.30
2019-03-18T22:03:13.040Z,2.30
2019-03-18T22:05:41.694Z,2.20
2019-03-18T22:08:10.230Z,2.20
2019-03-18T22:10:38.723Z,2.30
2019-03-18T22:13:07.334Z,2.30
2019-03-18T22:15:55.184Z,2.20
2019-03-18T22:18:22.939Z,2.20
2019-03-18T22:20:53.440Z,2.20
2019-03-18T22:23:22.240Z,2.20
2019-03-18T22:25:50.777Z,2.10
2019-03-18T22:28:19.713Z,2.10
2019-03-18T22:30:48.351Z,2.10
2019-03-18T22:33:16.891Z,2.10
2019-03-18T22:35:45.531Z,2.20
2019-03-18T22:38:14.071Z,2.20
2019-03-18T22:40:42.611Z,2.30
2019-03-18T22:43:11.175Z,2.30
2019-03-18T22:45:39.730Z,2.30
2019-03-18T22:48:08.297Z,2.30
2019-03-18T22:50:36.829Z,2.30
2019-03-18T22:53:05.503Z,2.30
2019-03-18T22:55:34.071Z,2.30
2019-03-18T22:58:02.613Z,2.30
2019-03-18T23:00:32.971Z,2.30
2019-03-18T23:03:02.628Z,2.30
2019-03-18T23:05:31.515Z,2.20
2019-03-18T23:08:00.055Z,2.20
2019-03-18T23:10:28.627Z,2.20
2019-03-18T23:12:57.244Z,2.20
2019-03-18T23:15:25.803Z,2.30
2019-03-18T23:17:54.378Z,2.30
2019-03-18T23:20:23.321Z,2.30
2019-03-18T23:22:51.862Z,2.30
2019-03-18T23:25:20.440Z,2.20
2019-03-18T23:27:48.999Z,2.30
2019-03-18T23:30:18.061Z,2.20
2019-03-18T23:32:46.631Z,2.10
2019-03-18T23:35:15.173Z,2.00
2019-03-18T23:37:43.736Z,1.90
2019-03-18T23:40:13.519Z,1.90
2019-03-18T23:42:42.059Z,1.90
2019-03-18T23:45:31.479Z,1.90
2019-03-18T23:47:59.939Z,1.90
2019-03-18T23:50:28.485Z,1.80
2019-03-18T23:52:57.110Z,1.90
2019-03-18T23:55:25.732Z,1.80
2019-03-18T23:57:54.569Z,1.80
